Time;durP1;ratioP1;P1;durP2;ratioP2;P2;SDS_P1;SDS_P2;PMS_P1;PMS_P2;Temp;Humidity;BMP_temperature;BMP_pressure;BME280_temperature;BME280_humidity;BME280_pressure;Samples;Min_cycle;Max_cycle;Signal;HPM_P1;HPM_P2
2023/04/25 00:00:03;;;;;;;;;2.25;1.00;;;;;;;;5000869;28;45486;-86
2023/04/25 00:02:28;;;;;;;;;1.75;1.25;;;;;;;;5018732;28;45417;-85
2023/04/25 00:04:57;;;;;;;;;1.00;1.00;;;;;;;;5000909;28;45387;-85
2023/04/25 00:07:24;;;;;;;;;1.75;1.00;;;;;;;;5018085;28;45420;-86
2023/04/25 00:09:50;;;;;;;;;2.00;1.00;;;;;;;;5000995;28;46293;-87
2023/04/25 00:12:18;;;;;;;;;1.00;1.00;;;;;;;;5011352;28;45329;-87
2023/04/25 00:14:47;;;;;;;;;1.00;0.00;;;;;;;;5038546;28;45443;-85
2023/04/25 00:17:12;;;;;;;;;2.50;1.00;;;;;;;;5020956;28;48252;-87
2023/04/25 00:19:40;;;;;;;;;1.00;1.00;;;;;;;;5020572;28;45951;-86
2023/04/25 00:22:05;;;;;;;;;3.00;1.00;;;;;;;;5020418;28;45444;-88
2023/04/25 00:24:33;;;;;;;;;2.00;1.00;;;;;;;;5021289;28;45281;-88
2023/04/25 00:27:02;;;;;;;;;3.00;1.00;;;;;;;;5020006;28;47585;-86
2023/04/25 00:29:27;;;;;;;;;0.25;0.25;;;;;;;;5038586;28;45249;-85
2023/04/25 00:31:52;;;;;;;;;1.50;1.00;;;;;;;;5020569;28;45465;-84
2023/04/25 00:34:17;;;;;;;;;2.00;2.00;;;;;;;;5038213;28;45328;-84
2023/04/25 00:36:43;;;;;;;;;3.00;0.67;;;;;;;;5037636;28;45587;-85
2023/04/25 00:39:08;;;;;;;;;1.00;1.00;;;;;;;;5038363;28;45450;-86
2023/04/25 00:41:36;;;;;;;;;1.00;0.67;;;;;;;;5019936;28;45418;-85
2023/04/25 00:44:06;;;;;;;;;0.75;0.75;;;;;;;;5020223;28;45487;-85
2023/04/25 00:46:32;;;;;;;;;2.25;0.75;;;;;;;;5019924;28;48273;-85
2023/04/25 00:48:57;;;;;;;;;2.50;1.00;;;;;;;;5037493;28;45400;-83
2023/04/25 00:51:26;;;;;;;;;1.00;1.00;;;;;;;;5037647;28;45318;-86
2023/04/25 00:53:52;;;;;;;;;3.00;1.00;;;;;;;;5019886;28;45411;-85
2023/04/25 00:56:17;;;;;;;;;1.00;0.00;;;;;;;;5037255;28;46110;-85
2023/04/25 00:58:43;;;;;;;;;2.67;1.00;;;;;;;;5020098;28;45208;-86
2023/04/25 01:01:09;;;;;;;;;1.50;0.50;;;;;;;;5037604;28;45384;-85
2023/04/25 01:03:35;;;;;;;;;1.00;0.00;;;;;;;;5020019;28;45318;-87
2023/04/25 01:06:01;;;;;;;;;3.00;1.00;;;;;;;;5019464;28;48181;-85
2023/04/25 01:08:26;;;;;;;;;1.50;1.25;;;;;;;;5037819;28;45472;-85
2023/04/25 01:10:51;;;;;;;;;0.67;0.00;;;;;;;;5037925;28;45353;-86
2023/04/25 01:13:16;;;;;;;;;0.33;0.33;;;;;;;;5037108;28;45293;-85
2023/04/25 01:15:42;;;;;;;;;1.00;1.00;;;;;;;;5037227;28;46264;-85
2023/04/25 01:18:07;;;;;;;;;2.50;1.00;;;;;;;;5037291;28;45360;-85
2023/04/25 01:20:33;;;;;;;;;2.00;1.00;;;;;;;;5037449;28;45657;-86
2023/04/25 01:22:58;;;;;;;;;1.50;1.00;;;;;;;;5019443;28;45549;-86
2023/04/25 01:25:23;;;;;;;;;2.00;1.00;;;;;;;;5019239;28;46994;-86
2023/04/25 01:27:49;;;;;;;;;4.50;2.00;;;;;;;;5019243;28;45509;-85
2023/04/25 01:30:14;;;;;;;;;3.00;1.00;;;;;;;;5037262;28;45334;-86
2023/04/25 01:32:41;;;;;;;;;1.25;0.75;;;;;;;;5037119;28;45370;-86
2023/04/25 01:35:09;;;;;;;;;3.00;1.00;;;;;;;;5036584;28;46245;-85
2023/04/25 01:37:35;;;;;;;;;2.75;1.75;;;;;;;;5036858;28;45389;-84
2023/04/25 01:40:00;;;;;;;;;0.75;0.75;;;;;;;;5037259;28;45226;-86
2023/04/25 01:42:25;;;;;;;;;1.25;1.25;;;;;;;;5019594;28;45354;-85
2023/04/25 01:44:51;;;;;;;;;1.00;0.67;;;;;;;;5036866;28;46164;-85
2023/04/25 01:47:16;;;;;;;;;2.00;1.00;;;;;;;;5037280;28;45246;-86
2023/04/25 01:49:41;;;;;;;;;1.00;0.67;;;;;;;;5036936;28;45400;-86
2023/04/25 01:52:06;;;;;;;;;1.33;1.33;;;;;;;;5019050;28;45441;-85
2023/04/25 01:54:31;;;;;;;;;1.00;1.00;;;;;;;;5036787;28;46485;-85
2023/04/25 01:56:57;;;;;;;;;2.67;1.00;;;;;;;;5036685;28;45564;-85
2023/04/25 01:59:25;;;;;;;;;3.00;1.00;;;;;;;;5036718;28;45450;-85
2023/04/25 02:01:50;;;;;;;;;5.25;1.00;;;;;;;;5036776;28;45535;-86
2023/04/25 02:04:18;;;;;;;;;2.00;1.00;;;;;;;;5036187;28;46279;-85
2023/04/25 02:06:43;;;;;;;;;5.50;1.75;;;;;;;;5018307;28;45432;-82
2023/04/25 02:09:09;;;;;;;;;1.00;1.00;;;;;;;;5035355;28;45307;-84
2023/04/25 02:11:34;;;;;;;;;2.25;1.00;;;;;;;;5036176;28;45624;-85
2023/04/25 02:13:59;;;;;;;;;0.00;0.00;;;;;;;;5018725;28;48061;-86
2023/04/25 02:16:27;;;;;;;;;3.00;2.00;;;;;;;;5036113;28;45635;-84
2023/04/25 02:18:52;;;;;;;;;3.75;2.00;;;;;;;;5036680;28;45510;-85
2023/04/25 02:21:19;;;;;;;;;4.33;1.67;;;;;;;;5036608;28;45361;-85
2023/04/25 02:23:48;;;;;;;;;1.25;1.00;;;;;;;;5018409;28;47410;-85
2023/04/25 02:26:13;;;;;;;;;5.25;2.00;;;;;;;;5036681;28;45237;-86
2023/04/25 02:28:39;;;;;;;;;2.00;2.00;;;;;;;;5018582;28;45397;-86
2023/04/25 02:31:04;;;;;;;;;3.00;2.00;;;;;;;;5018209;28;45638;-86
2023/04/25 02:33:30;;;;;;;;;1.50;1.00;;;;;;;;5035297;28;45823;-86
2023/04/25 02:35:57;;;;;;;;;2.00;2.00;;;;;;;;5035208;28;45297;-86
2023/04/25 02:38:23;;;;;;;;;5.00;1.25;;;;;;;;5036691;28;45360;-88
2023/04/25 02:40:48;;;;;;;;;1.00;1.00;;;;;;;;5036753;28;45421;-87
2023/04/25 02:43:16;;;;;;;;;2.00;2.00;;;;;;;;5018715;28;47364;-88
2023/04/25 02:45:41;;;;;;;;;5.25;1.75;;;;;;;;5036015;28;45408;-88
2023/04/25 02:48:06;;;;;;;;;1.67;1.67;;;;;;;;5036272;28;45238;-86
2023/04/25 02:50:32;;;;;;;;;2.00;1.33;;;;;;;;5019255;28;45384;-90
2023/04/25 02:52:57;;;;;;;;;2.00;2.00;;;;;;;;5019732;28;47321;-88
2023/04/25 02:55:25;;;;;;;;;5.00;2.00;;;;;;;;5036563;28;45339;-87
2023/04/25 02:57:51;;;;;;;;;1.75;1.75;;;;;;;;5036058;28;45342;-86
2023/04/25 03:00:16;;;;;;;;;2.50;2.25;;;;;;;;5035539;28;45397;-86
2023/04/25 03:02:41;;;;;;;;;2.75;2.00;;;;;;;;5017897;28;47110;-86
2023/04/25 03:05:07;;;;;;;;;2.00;2.00;;;;;;;;5035345;28;45377;-86
2023/04/25 03:07:32;;;;;;;;;5.67;5.00;;;;;;;;5036056;28;45317;-86
2023/04/25 03:10:00;;;;;;;;;6.00;3.00;;;;;;;;5018588;28;45208;-86
2023/04/25 03:12:25;;;;;;;;;5.25;4.00;;;;;;;;5018071;28;47857;-87
2023/04/25 03:14:50;;;;;;;;;1.00;1.00;;;;;;;;5017791;28;45474;-87
2023/04/25 03:17:16;;;;;;;;;3.00;3.00;;;;;;;;5018672;28;45353;-88
2023/04/25 03:19:41;;;;;;;;;1.00;1.00;;;;;;;;5019476;28;45667;-87
2023/04/25 03:22:09;;;;;;;;;5.00;3.00;;;;;;;;5039434;28;46280;-86
2023/04/25 03:24:34;;;;;;;;;4.00;4.00;;;;;;;;5021512;28;45684;-86
2023/04/25 03:27:00;;;;;;;;;3.50;2.75;;;;;;;;5039794;28;45355;-87
2023/04/25 03:29:27;;;;;;;;;2.50;2.50;;;;;;;;5021571;28;45604;-87
2023/04/25 03:31:55;;;;;;;;;8.50;1.00;;;;;;;;5038414;28;46835;-87
2023/04/25 03:34:23;;;;;;;;;4.00;4.00;;;;;;;;5021571;28;46028;-87
2023/04/25 03:36:49;;;;;;;;;2.25;1.25;;;;;;;;5039536;28;45358;-87
2023/04/25 03:39:14;;;;;;;;;4.00;2.00;;;;;;;;5021652;28;45244;-86
2023/04/25 03:41:39;;;;;;;;;5.33;3.00;;;;;;;;5020724;28;47258;-87
2023/04/25 03:44:04;;;;;;;;;1.33;1.33;;;;;;;;5038818;28;45286;-85
2023/04/25 03:46:29;;;;;;;;;5.33;2.33;;;;;;;;5022124;28;45444;-86
2023/04/25 03:48:55;;;;;;;;;3.00;1.00;;;;;;;;5039918;28;45229;-88
2023/04/25 03:51:20;;;;;;;;;5.00;2.00;;;;;;;;5022461;28;47467;-87
2023/04/25 03:53:45;;;;;;;;;1.33;1.00;;;;;;;;5038950;28;45346;-86
2023/04/25 03:56:13;;;;;;;;;5.00;2.00;;;;;;;;5021011;28;45396;-86
2023/04/25 03:58:39;;;;;;;;;5.50;2.00;;;;;;;;5037432;28;45537;-88
2023/04/25 04:01:07;;;;;;;;;5.50;2.75;;;;;;;;5021160;28;47244;-88
2023/04/25 04:03:34;;;;;;;;;3.50;2.50;;;;;;;;5039175;28;45718;-88
2023/04/25 04:05:59;;;;;;;;;5.25;3.00;;;;;;;;5039265;28;45342;-87
2023/04/25 04:08:24;;;;;;;;;7.00;2.00;;;;;;;;5039163;28;45474;-87
2023/04/25 04:10:50;;;;;;;;;2.33;2.00;;;;;;;;5020933;28;48492;-88
2023/04/25 04:13:15;;;;;;;;;3.00;2.00;;;;;;;;5021101;28;45231;-87
2023/04/25 04:15:40;;;;;;;;;5.00;2.33;;;;;;;;5039353;28;45187;-86
2023/04/25 04:18:06;;;;;;;;;1.00;1.00;;;;;;;;5020693;28;45397;-88
2023/04/25 04:20:31;;;;;;;;;3.00;3.00;;;;;;;;5021183;28;47204;-89
2023/04/25 04:22:56;;;;;;;;;5.00;3.00;;;;;;;;5020956;28;45246;-89
2023/04/25 04:25:21;;;;;;;;;4.33;2.00;;;;;;;;5020881;28;45249;-87
2023/04/25 04:27:47;;;;;;;;;2.00;2.00;;;;;;;;5021203;28;45487;-90
2023/04/25 04:30:12;;;;;;;;;3.50;1.00;;;;;;;;5038679;28;45393;-88
2023/04/25 04:32:38;;;;;;;;;4.00;3.25;;;;;;;;5020095;28;45891;-87
2023/04/25 04:35:04;;;;;;;;;3.75;2.75;;;;;;;;5038555;28;45398;-87
2023/04/25 04:37:29;;;;;;;;;5.00;3.25;;;;;;;;5038734;28;45382;-87
2023/04/25 04:39:55;;;;;;;;;2.75;2.75;;;;;;;;5038849;28;47077;-88
2023/04/25 04:42:21;;;;;;;;;9.00;6.00;;;;;;;;5038335;28;45424;-88
2023/04/25 04:44:46;;;;;;;;;8.00;3.00;;;;;;;;5021540;28;45315;-88
2023/04/25 04:47:12;;;;;;;;;2.00;1.00;;;;;;;;5021106;28;45344;-89
2023/04/25 04:49:37;;;;;;;;;2.75;2.75;;;;;;;;5037009;28;46013;-88
2023/04/25 04:52:02;;;;;;;;;2.67;2.67;;;;;;;;5038795;28;45345;-88
2023/04/25 04:54:28;;;;;;;;;2.00;1.00;;;;;;;;5021210;28;45244;-88
2023/04/25 04:56:53;;;;;;;;;6.00;2.75;;;;;;;;5038271;28;45648;-87
2023/04/25 04:59:18;;;;;;;;;3.33;3.33;;;;;;;;5038110;28;46493;-87
2023/04/25 05:01:43;;;;;;;;;6.33;4.33;;;;;;;;5020415;28;45301;-87
2023/04/25 05:04:08;;;;;;;;;5.67;3.00;;;;;;;;5021002;28;45299;-88
2023/04/25 05:06:34;;;;;;;;;5.00;2.00;;;;;;;;5020995;28;45291;-90
2023/04/25 05:08:59;;;;;;;;;5.75;2.00;;;;;;;;5038441;28;46360;-89
2023/04/25 05:11:25;;;;;;;;;7.50;2.75;;;;;;;;5020262;28;45360;-89
2023/04/25 05:13:51;;;;;;;;;4.75;2.00;;;;;;;;5038896;28;45293;-89
2023/04/25 05:16:17;;;;;;;;;5.25;2.00;;;;;;;;5020841;28;45524;-89
2023/04/25 05:18:42;;;;;;;;;3.00;2.00;;;;;;;;5020998;28;47647;-89
2023/04/25 05:21:07;;;;;;;;;7.67;6.00;;;;;;;;5020501;28;45734;-89
2023/04/25 05:23:32;;;;;;;;;6.00;2.67;;;;;;;;5038499;28;45403;-88
2023/04/25 05:25:58;;;;;;;;;5.75;5.75;;;;;;;;5020311;28;45361;-89
2023/04/25 05:28:23;;;;;;;;;9.75;6.50;;;;;;;;5020662;28;48403;-90
2023/04/25 05:30:49;;;;;;;;;9.00;7.67;;;;;;;;5021609;28;45454;-91
2023/04/25 05:33:16;;;;;;;;;10.50;6.00;;;;;;;;5020027;28;45763;-85
2023/04/25 05:35:42;;;;;;;;;3.00;2.25;;;;;;;;5018866;28;45473;-86
2023/04/25 05:38:07;;;;;;;;;6.00;6.00;;;;;;;;5017229;28;46387;-83
2023/04/25 05:40:32;;;;;;;;;9.33;9.00;;;;;;;;5016309;28;45358;-84
2023/04/25 05:42:57;;;;;;;;;10.33;10.00;;;;;;;;4999110;28;45359;-84
2023/04/25 05:45:22;;;;;;;;;7.00;7.00;;;;;;;;5016876;28;45327;-84
2023/04/25 05:47:48;;;;;;;;;9.50;6.25;;;;;;;;5032236;28;46329;-84
2023/04/25 05:50:13;;;;;;;;;8.67;4.33;;;;;;;;5036713;28;45341;-84
2023/04/25 05:52:38;;;;;;;;;8.33;6.00;;;;;;;;5032283;28;45329;-84
2023/04/25 05:55:04;;;;;;;;;6.25;6.25;;;;;;;;5035900;28;45486;-84
2023/04/25 05:57:29;;;;;;;;;10.75;10.75;;;;;;;;5036299;28;47509;-85
2023/04/25 05:59:54;;;;;;;;;13.75;9.00;;;;;;;;5036749;28;45317;-85
2023/04/25 06:02:20;;;;;;;;;12.00;6.00;;;;;;;;5036847;28;45310;-86
2023/04/25 06:04:46;;;;;;;;;14.25;7.50;;;;;;;;5036654;28;45420;-85
2023/04/25 06:07:11;;;;;;;;;2.50;2.25;;;;;;;;5036594;28;46440;-85
2023/04/25 06:09:38;;;;;;;;;9.75;6.25;;;;;;;;5036228;28;45259;-88
2023/04/25 06:12:04;;;;;;;;;5.25;3.00;;;;;;;;5036592;28;45427;-84
2023/04/25 06:14:39;;;;;;;;;5.25;5.00;;;;;;;;5036815;28;45487;-89
2023/04/25 06:17:08;;;;;;;;;4.50;2.00;;;;;;;;5036642;28;46190;-87
2023/04/25 06:19:33;;;;;;;;;4.00;2.25;;;;;;;;5036750;28;45295;-85
2023/04/25 06:21:59;;;;;;;;;3.00;2.00;;;;;;;;5011569;28;45467;-87
2023/04/25 06:24:24;;;;;;;;;2.00;1.00;;;;;;;;5013285;28;45395;-86
2023/04/25 06:26:49;;;;;;;;;1.33;1.33;;;;;;;;5019213;28;48315;-87
2023/04/25 06:29:15;;;;;;;;;2.00;2.00;;;;;;;;5036696;28;45465;-87
2023/04/25 06:31:40;;;;;;;;;7.00;3.00;;;;;;;;5019144;28;45292;-87
2023/04/25 06:34:05;;;;;;;;;3.00;2.00;;;;;;;;5036916;28;45333;-87
2023/04/25 06:36:30;;;;;;;;;4.33;2.00;;;;;;;;5018677;28;46958;-88
2023/04/25 06:38:55;;;;;;;;;6.00;1.67;;;;;;;;5018490;28;46435;-87
2023/04/25 06:41:21;;;;;;;;;11.00;3.00;;;;;;;;5018962;28;45314;-87
2023/04/25 06:43:46;;;;;;;;;1.67;1.67;;;;;;;;5019086;28;45311;-87
2023/04/25 06:46:11;;;;;;;;;3.67;1.00;;;;;;;;5036225;28;46120;-87
2023/04/25 06:48:36;;;;;;;;;4.33;1.00;;;;;;;;5036666;28;45428;-86
2023/04/25 06:51:01;;;;;;;;;6.00;3.00;;;;;;;;5037036;28;45322;-87
2023/04/25 06:53:27;;;;;;;;;1.67;1.00;;;;;;;;5036546;28;45327;-87
2023/04/25 06:55:52;;;;;;;;;5.00;3.50;;;;;;;;5035919;28;46560;-90
2023/04/25 06:58:17;;;;;;;;;6.50;3.00;;;;;;;;5036511;28;45614;-88
2023/04/25 07:00:43;;;;;;;;;9.00;6.25;;;;;;;;5019091;28;45456;-88
2023/04/25 07:03:08;;;;;;;;;6.00;5.00;;;;;;;;5018472;28;45298;-86
2023/04/25 07:05:33;;;;;;;;;8.33;6.00;;;;;;;;5018012;28;47191;-86
2023/04/25 07:07:58;;;;;;;;;5.00;5.00;;;;;;;;5018202;28;45614;-87
2023/04/25 07:10:23;;;;;;;;;9.00;5.33;;;;;;;;5018397;28;45413;-87
2023/04/25 07:12:49;;;;;;;;;8.67;6.67;;;;;;;;5018529;28;45382;-87
2023/04/25 07:15:14;;;;;;;;;7.67;6.00;;;;;;;;5036363;28;47781;-88
2023/04/25 07:17:39;;;;;;;;;9.75;5.00;;;;;;;;5036169;28;45432;-88
2023/04/25 07:20:05;;;;;;;;;11.00;3.00;;;;;;;;5036288;28;45880;-88
2023/04/25 07:22:31;;;;;;;;;5.50;3.50;;;;;;;;5018073;28;45439;-87
2023/04/25 07:24:56;;;;;;;;;9.00;5.25;;;;;;;;5035673;28;45663;-86
2023/04/25 07:27:21;;;;;;;;;7.00;5.00;;;;;;;;5036222;28;45451;-87
2023/04/25 07:29:47;;;;;;;;;9.00;3.00;;;;;;;;5036293;28;45297;-85
2023/04/25 07:32:13;;;;;;;;;10.00;5.00;;;;;;;;5035850;28;45512;-86
2023/04/25 07:34:38;;;;;;;;;8.75;4.50;;;;;;;;5035952;28;47207;-88
2023/04/25 07:37:04;;;;;;;;;11.67;6.67;;;;;;;;5018541;28;45332;-87
2023/04/25 07:39:31;;;;;;;;;13.75;5.75;;;;;;;;5036475;28;45160;-91
2023/04/25 07:41:58;;;;;;;;;7.25;4.50;;;;;;;;5035747;28;45308;-89
2023/04/25 07:44:26;;;;;;;;;7.00;5.25;;;;;;;;5002272;28;46830;-89
2023/04/25 07:46:51;;;;;;;;;8.00;4.50;;;;;;;;5015703;28;45394;-87
2023/04/25 07:49:16;;;;;;;;;6.33;6.00;;;;;;;;5005119;28;45326;-86
2023/04/25 07:51:43;;;;;;;;;7.00;5.33;;;;;;;;5016595;28;45312;-87
2023/04/25 07:54:08;;;;;;;;;7.00;5.50;;;;;;;;5035131;28;45682;-85
2023/04/25 07:56:34;;;;;;;;;12.25;5.00;;;;;;;;5015307;28;45275;-84
2023/04/25 07:59:00;;;;;;;;;7.00;5.00;;;;;;;;5004918;28;45382;-85
2023/04/25 08:01:57;;;;;;;;;5.50;3.00;;;;;;;;5022003;28;45280;-90
2023/04/25 08:04:22;;;;;;;;;6.00;5.00;;;;;;;;5015414;28;45563;-86
2023/04/25 08:06:48;;;;;;;;;4.00;3.00;;;;;;;;5009150;28;45913;-86
2023/04/25 08:09:39;;;;;;;;;11.50;5.75;;;;;;;;5037776;28;45280;-96
2023/04/25 08:12:04;;;;;;;;;6.50;4.25;;;;;;;;4968760;28;45597;-83
2023/04/25 08:14:35;;;;;;;;;2.00;2.00;;;;;;;;4957316;28;45374;-84
2023/04/25 08:17:00;;;;;;;;;4.50;2.75;;;;;;;;4956838;28;45802;-83
2023/04/25 08:19:26;;;;;;;;;6.00;2.67;;;;;;;;4949287;28;45414;-85
2023/04/25 08:21:51;;;;;;;;;5.75;2.50;;;;;;;;4932424;28;45862;-83
2023/04/25 08:24:16;;;;;;;;;5.25;2.00;;;;;;;;4941490;28;46139;-84
2023/04/25 08:26:42;;;;;;;;;6.00;3.00;;;;;;;;4948547;28;45410;-82
2023/04/25 08:29:07;;;;;;;;;2.67;2.00;;;;;;;;4958751;28;45607;-85
2023/04/25 08:31:32;;;;;;;;;2.67;2.00;;;;;;;;4957753;28;45370;-85
2023/04/25 08:33:57;;;;;;;;;2.33;2.33;;;;;;;;4955227;28;45413;-84
2023/04/25 08:36:22;;;;;;;;;3.00;2.00;;;;;;;;4948415;28;45652;-84
2023/04/25 08:38:48;;;;;;;;;2.25;2.25;;;;;;;;4956037;28;45406;-84
2023/04/25 08:41:15;;;;;;;;;7.50;5.00;;;;;;;;4966732;28;45653;-85
2023/04/25 08:43:41;;;;;;;;;5.25;4.50;;;;;;;;4938153;28;46607;-84
2023/04/25 08:46:07;;;;;;;;;6.50;2.75;;;;;;;;4956079;28;45887;-84
2023/04/25 08:48:33;;;;;;;;;5.50;2.00;;;;;;;;4969822;28;45477;-83
2023/04/25 08:51:00;;;;;;;;;7.25;3.00;;;;;;;;5016775;28;45319;-84
2023/04/25 08:53:26;;;;;;;;;5.75;2.00;;;;;;;;5029614;28;46521;-84
2023/04/25 08:55:55;;;;;;;;;4.75;2.75;;;;;;;;5016784;28;45401;-84
2023/04/25 08:58:21;;;;;;;;;3.00;3.00;;;;;;;;4992764;28;45665;-84
2023/04/25 09:00:47;;;;;;;;;3.00;3.00;;;;;;;;5017137;28;45414;-84
2023/04/25 09:03:12;;;;;;;;;5.00;2.00;;;;;;;;5016172;28;45493;-84
2023/04/25 09:05:40;;;;;;;;;3.00;1.25;;;;;;;;5016643;28;45620;-84
2023/04/25 09:08:05;;;;;;;;;5.50;2.50;;;;;;;;5016018;28;45456;-84
2023/04/25 09:10:30;;;;;;;;;2.25;2.25;;;;;;;;5016104;28;45488;-84
2023/04/25 09:13:02;;;;;;;;;3.00;3.00;;;;;;;;5015605;28;46329;-83
2023/04/25 09:15:27;;;;;;;;;7.50;1.75;;;;;;;;5015803;28;45433;-84
2023/04/25 09:17:56;;;;;;;;;2.67;2.00;;;;;;;;5015981;28;45496;-84
2023/04/25 09:20:21;;;;;;;;;7.25;2.00;;;;;;;;5016302;28;45410;-83
2023/04/25 09:22:46;;;;;;;;;6.67;2.00;;;;;;;;5029483;28;46322;-83
2023/04/25 09:25:13;;;;;;;;;4.33;1.33;;;;;;;;5036121;28;45459;-84
2023/04/25 09:28:05;;;;;;;;;2.25;2.00;;;;;;;;5036258;28;45507;-83
2023/04/25 09:30:31;;;;;;;;;3.00;2.00;;;;;;;;5019610;28;45601;-84
2023/04/25 09:32:57;;;;;;;;;5.00;2.00;;;;;;;;4998225;28;46756;-84
2023/04/25 09:35:24;;;;;;;;;3.50;2.00;;;;;;;;5016218;28;45764;-84
2023/04/25 09:37:50;;;;;;;;;4.50;2.00;;;;;;;;5016246;28;45526;-83
2023/04/25 09:40:17;;;;;;;;;3.00;1.25;;;;;;;;4998437;28;45495;-84
2023/04/25 09:42:42;;;;;;;;;4.00;2.00;;;;;;;;5016119;28;45422;-83
2023/04/25 09:45:12;;;;;;;;;3.33;2.00;;;;;;;;5016320;28;45444;-83
2023/04/25 09:47:38;;;;;;;;;5.75;2.00;;;;;;;;5029586;28;45437;-84
2023/04/25 09:50:13;;;;;;;;;7.25;3.00;;;;;;;;5035751;28;45429;-83
2023/04/25 09:52:38;;;;;;;;;4.00;2.00;;;;;;;;5035853;28;46336;-84
2023/04/25 09:55:03;;;;;;;;;1.67;1.00;;;;;;;;5035843;28;45451;-84
2023/04/25 09:57:29;;;;;;;;;6.75;1.75;;;;;;;;5017838;28;45253;-84
2023/04/25 09:59:55;;;;;;;;;2.00;1.25;;;;;;;;5036178;28;45694;-84
2023/04/25 10:02:22;;;;;;;;;3.00;1.00;;;;;;;;5035135;28;46275;-84
2023/04/25 10:04:51;;;;;;;;;2.00;1.50;;;;;;;;5035610;28;45750;-84
2023/04/25 10:07:16;;;;;;;;;1.25;1.25;;;;;;;;5035973;28;45442;-84
2023/04/25 10:09:42;;;;;;;;;3.50;2.00;;;;;;;;5035806;28;45311;-84
2023/04/25 10:12:08;;;;;;;;;1.00;1.00;;;;;;;;5036443;28;47101;-83
2023/04/25 10:14:33;;;;;;;;;2.75;1.00;;;;;;;;5025630;28;45484;-84
2023/04/25 10:16:59;;;;;;;;;2.00;2.00;;;;;;;;5027470;28;45396;-84
2023/04/25 10:19:25;;;;;;;;;3.25;1.75;;;;;;;;5015191;28;45782;-83
2023/04/25 10:21:56;;;;;;;;;1.00;1.00;;;;;;;;5015724;28;48196;-84
2023/04/25 10:24:22;;;;;;;;;0.25;0.25;;;;;;;;5035507;28;46328;-82
2023/04/25 10:26:48;;;;;;;;;4.00;2.25;;;;;;;;5017207;28;45354;-83
2023/04/25 10:29:21;;;;;;;;;2.25;1.50;;;;;;;;5027669;28;45348;-84
2023/04/25 10:31:47;;;;;;;;;1.50;1.25;;;;;;;;5034597;28;45720;-84
2023/04/25 10:34:12;;;;;;;;;1.00;1.00;;;;;;;;5035308;28;45396;-85
2023/04/25 10:36:37;;;;;;;;;1.33;1.00;;;;;;;;5035012;28;45347;-84
2023/04/25 10:39:06;;;;;;;;;2.75;1.25;;;;;;;;5029252;28;45678;-84
2023/04/25 10:41:44;;;;;;;;;8.50;1.00;;;;;;;;5032205;28;46112;-83
2023/04/25 10:44:10;;;;;;;;;4.25;1.50;;;;;;;;5032503;28;45380;-84
2023/04/25 10:46:35;;;;;;;;;5.33;2.33;;;;;;;;5017261;28;45429;-82
2023/04/25 10:49:01;;;;;;;;;4.00;2.00;;;;;;;;5034750;28;45362;-83
2023/04/25 10:51:28;;;;;;;;;2.00;1.00;;;;;;;;5033728;28;46296;-82
2023/04/25 10:53:59;;;;;;;;;2.00;0.75;;;;;;;;5021630;28;45711;-81
2023/04/25 10:56:28;;;;;;;;;1.75;1.00;;;;;;;;5027676;28;45923;-82
2023/04/25 10:59:03;;;;;;;;;2.50;1.00;;;;;;;;5016579;28;45509;-84
2023/04/25 11:01:35;;;;;;;;;0.75;0.75;;;;;;;;5017217;28;47799;-84
2023/04/25 11:04:00;;;;;;;;;1.00;0.50;;;;;;;;5028245;28;45476;-84
2023/04/25 11:06:36;;;;;;;;;1.00;1.00;;;;;;;;5034890;28;45412;-83
2023/04/25 11:09:02;;;;;;;;;3.00;1.00;;;;;;;;5018300;28;45370;-83
2023/04/25 11:11:28;;;;;;;;;2.50;1.00;;;;;;;;5018102;28;47220;-83
2023/04/25 11:13:53;;;;;;;;;1.00;1.00;;;;;;;;5039390;28;45801;-83
2023/04/25 11:16:18;;;;;;;;;1.67;1.00;;;;;;;;5032179;28;45730;-83
2023/04/25 11:18:44;;;;;;;;;3.00;1.00;;;;;;;;5039491;28;45673;-84
2023/04/25 11:21:10;;;;;;;;;1.00;1.00;;;;;;;;5000515;28;46866;-85
2023/04/25 11:23:35;;;;;;;;;0.50;0.50;;;;;;;;5034673;28;45415;-83
2023/04/25 11:26:03;;;;;;;;;1.25;1.25;;;;;;;;5034688;28;45235;-84
2023/04/25 11:28:28;;;;;;;;;1.25;1.00;;;;;;;;5026563;28;45521;-84
2023/04/25 11:30:54;;;;;;;;;2.33;1.67;;;;;;;;5034441;28;46239;-84
2023/04/25 11:33:22;;;;;;;;;1.33;0.67;;;;;;;;5034311;28;45377;-85
2023/04/25 11:35:48;;;;;;;;;1.00;1.00;;;;;;;;5029553;28;45381;-85
2023/04/25 11:38:13;;;;;;;;;1.00;1.00;;;;;;;;5032880;28;45401;-85
2023/04/25 11:40:38;;;;;;;;;1.00;1.00;;;;;;;;5035460;28;45585;-84
2023/04/25 11:43:03;;;;;;;;;0.67;0.00;;;;;;;;5037953;28;45413;-85
2023/04/25 11:45:30;;;;;;;;;1.00;0.67;;;;;;;;5019342;28;45478;-84
2023/04/25 11:47:55;;;;;;;;;2.75;1.50;;;;;;;;5009450;28;45629;-85
2023/04/25 11:50:21;;;;;;;;;0.67;0.33;;;;;;;;5036911;28;46639;-85
2023/04/25 11:52:46;;;;;;;;;4.00;2.00;;;;;;;;5020311;28;45324;-84
2023/04/25 11:55:19;;;;;;;;;3.00;1.00;;;;;;;;5034740;28;45277;-82
2023/04/25 11:57:45;;;;;;;;;1.25;1.25;;;;;;;;5036389;28;45568;-84
2023/04/25 12:00:15;;;;;;;;;7.00;3.25;;;;;;;;5033829;28;45655;-83
2023/04/25 12:02:41;;;;;;;;;2.00;0.75;;;;;;;;5036966;28;45774;-83
2023/04/25 12:05:08;;;;;;;;;5.00;3.00;;;;;;;;5037290;28;45458;-82
2023/04/25 12:07:33;;;;;;;;;5.75;3.25;;;;;;;;5037328;28;45556;-82
2023/04/25 12:09:58;;;;;;;;;1.00;1.00;;;;;;;;5031614;28;45751;-84
2023/04/25 12:12:27;;;;;;;;;4.33;2.00;;;;;;;;5018896;28;45754;-83
2023/04/25 12:14:52;;;;;;;;;2.00;2.00;;;;;;;;5030556;28;45255;-81
2023/04/25 12:17:17;;;;;;;;;0.25;0.00;;;;;;;;5036132;28;45474;-83
2023/04/25 12:19:44;;;;;;;;;4.00;1.67;;;;;;;;5033187;28;46274;-80
2023/04/25 12:22:19;;;;;;;;;2.75;2.00;;;;;;;;5029278;28;45360;-81
2023/04/25 12:24:45;;;;;;;;;3.00;2.00;;;;;;;;5029261;28;45523;-81
2023/04/25 12:27:10;;;;;;;;;2.33;1.00;;;;;;;;5036214;28;45456;-78
2023/04/25 12:29:35;;;;;;;;;4.00;1.00;;;;;;;;5029716;28;46428;-78
2023/04/25 12:32:03;;;;;;;;;2.75;1.75;;;;;;;;5035770;28;46628;-80
2023/04/25 12:34:28;;;;;;;;;4.00;1.00;;;;;;;;5032631;28;46847;-80
2023/04/25 12:36:54;;;;;;;;;2.00;2.00;;;;;;;;5033930;28;45477;-80
2023/04/25 12:39:21;;;;;;;;;2.00;2.00;;;;;;;;5033296;28;45399;-80
2023/04/25 12:41:46;;;;;;;;;1.50;1.50;;;;;;;;5013004;28;45400;-80
2023/04/25 12:44:12;;;;;;;;;7.50;2.25;;;;;;;;5034819;28;45357;-80
2023/04/25 12:46:38;;;;;;;;;2.75;2.00;;;;;;;;5036763;28;45413;-79
2023/04/25 12:49:03;;;;;;;;;2.00;2.00;;;;;;;;5029902;28;46108;-80
2023/04/25 12:51:28;;;;;;;;;3.00;2.00;;;;;;;;5033540;28;45456;-80
2023/04/25 12:53:54;;;;;;;;;3.00;1.50;;;;;;;;5030967;28;45444;-80
2023/04/25 12:56:19;;;;;;;;;2.00;2.00;;;;;;;;5035273;28;45305;-79
2023/04/25 12:58:44;;;;;;;;;5.00;1.00;;;;;;;;5029747;28;45555;-79
2023/04/25 13:01:11;;;;;;;;;2.00;2.00;;;;;;;;5036507;28;45417;-79
2023/04/25 13:03:36;;;;;;;;;2.00;2.00;;;;;;;;5021672;28;45553;-80
2023/04/25 13:06:01;;;;;;;;;1.00;1.00;;;;;;;;5017401;28;45502;-80
2023/04/25 13:08:27;;;;;;;;;1.67;1.00;;;;;;;;5035419;28;46305;-81
2023/04/25 13:10:52;;;;;;;;;3.00;0.00;;;;;;;;5036810;28;45480;-79
2023/04/25 13:13:17;;;;;;;;;2.33;1.33;;;;;;;;5020565;28;45661;-79
2023/04/25 13:15:42;;;;;;;;;0.00;0.00;;;;;;;;5037665;28;45357;-80
2023/04/25 13:18:08;;;;;;;;;1.00;0.00;;;;;;;;5035917;28;45393;-79
2023/04/25 13:20:33;;;;;;;;;1.00;0.00;;;;;;;;5036165;28;45361;-80
2023/04/25 13:22:58;;;;;;;;;2.00;1.00;;;;;;;;5037218;28;45439;-79
2023/04/25 13:25:23;;;;;;;;;2.00;1.00;;;;;;;;5018278;28;45362;-80
2023/04/25 13:27:49;;;;;;;;;2.00;1.00;;;;;;;;5017023;28;46488;-80
2023/04/25 13:30:14;;;;;;;;;0.50;0.50;;;;;;;;5035140;28;45282;-80
2023/04/25 13:32:40;;;;;;;;;0.75;0.75;;;;;;;;5024246;28;45275;-79
2023/04/25 13:35:07;;;;;;;;;0.25;0.25;;;;;;;;5016931;28;45336;-79
2023/04/25 13:37:32;;;;;;;;;4.00;1.00;;;;;;;;5029786;28;46726;-79
2023/04/25 13:40:02;;;;;;;;;2.33;1.00;;;;;;;;5024163;28;45721;-80
2023/04/25 13:42:28;;;;;;;;;3.25;0.50;;;;;;;;5036725;28;45368;-80
2023/04/25 13:44:53;;;;;;;;;1.00;1.00;;;;;;;;5035478;28;45612;-81
2023/04/25 13:47:18;;;;;;;;;1.00;1.00;;;;;;;;5036014;28;45411;-78
2023/04/25 13:49:43;;;;;;;;;0.33;0.33;;;;;;;;5024603;28;45428;-82
2023/04/25 13:52:08;;;;;;;;;1.33;1.00;;;;;;;;5030806;28;45864;-81
2023/04/25 13:54:34;;;;;;;;;0.67;0.67;;;;;;;;5026360;28;45426;-79
2023/04/25 13:56:59;;;;;;;;;2.00;2.00;;;;;;;;5026409;28;46621;-81
2023/04/25 13:59:25;;;;;;;;;3.00;1.00;;;;;;;;5035692;28;45293;-81
2023/04/25 14:01:51;;;;;;;;;4.25;2.00;;;;;;;;5035329;28;45849;-81
2023/04/25 14:04:16;;;;;;;;;2.50;0.50;;;;;;;;5033979;28;45570;-79
2023/04/25 14:06:41;;;;;;;;;3.00;1.00;;;;;;;;5030695;28;46381;-81
2023/04/25 14:09:09;;;;;;;;;1.00;1.00;;;;;;;;5029721;28;45351;-81
2023/04/25 14:11:36;;;;;;;;;0.00;0.00;;;;;;;;5030908;28;45448;-81
2023/04/25 14:14:01;;;;;;;;;1.00;1.00;;;;;;;;5017860;28;45596;-81
2023/04/25 14:16:26;;;;;;;;;2.00;1.00;;;;;;;;5011138;28;48237;-81
2023/04/25 14:18:52;;;;;;;;;1.00;1.00;;;;;;;;5035088;28;45466;-81
2023/04/25 14:21:17;;;;;;;;;1.75;1.00;;;;;;;;5034458;28;46730;-81
2023/04/25 14:23:42;;;;;;;;;0.00;0.00;;;;;;;;5034045;28;45385;-81
2023/04/25 14:26:11;;;;;;;;;1.67;1.00;;;;;;;;5034483;28;46689;-81
2023/04/25 14:28:36;;;;;;;;;2.00;2.00;;;;;;;;5035388;28;45462;-81
2023/04/25 14:31:02;;;;;;;;;7.67;1.00;;;;;;;;5034923;28;45471;-81
2023/04/25 14:33:27;;;;;;;;;1.00;1.00;;;;;;;;5035303;28;45513;-81
2023/04/25 14:35:52;;;;;;;;;2.00;1.00;;;;;;;;5009115;28;48032;-81